sensor_id;sensor_type;location;lat;lon;timestamp;pressure;altitude;pressure_sealevel;temperature;humidity
52735;BME280;38631;47.572;10.704;2022-10-31T00:00:50;93079.28;;;10.54;83.72
52735;BME280;38631;47.572;10.704;2022-10-31T00:03:16;93079.06;;;9.74;86.51
52735;BME280;38631;47.572;10.704;2022-10-31T00:05:48;93082.00;;;9.73;86.56
52735;BME280;38631;47.572;10.704;2022-10-31T00:08:15;93087.53;;;10.14;85.51
52735;BME280;38631;47.572;10.704;2022-10-31T00:10:41;93087.34;;;10.11;85.31
52735;BME280;38631;47.572;10.704;2022-10-31T00:13:08;93090.63;;;10.41;84.68
52735;BME280;38631;47.572;10.704;2022-10-31T00:15:34;93087.09;;;10.45;83.82
52735;BME280;38631;47.572;10.704;2022-10-31T00:18:00;93091.13;;;9.86;85.83
52735;BME280;38631;47.572;10.704;2022-10-31T00:20:26;93089.25;;;9.67;87.08
52735;BME280;38631;47.572;10.704;2022-10-31T00:22:51;93097.06;;;10.15;85.82
52735;BME280;38631;47.572;10.704;2022-10-31T00:25:16;93091.19;;;10.19;84.58
52735;BME280;38631;47.572;10.704;2022-10-31T00:27:42;93094.91;;;9.80;85.95
52735;BME280;38631;47.572;10.704;2022-10-31T00:30:07;93104.16;;;9.63;86.60
52735;BME280;38631;47.572;10.704;2022-10-31T00:32:33;93094.28;;;9.88;85.63
52735;BME280;38631;47.572;10.704;2022-10-31T00:34:58;93102.88;;;9.80;85.61
52735;BME280;38631;47.572;10.704;2022-10-31T00:37:23;93096.84;;;9.93;85.33
52735;BME280;38631;47.572;10.704;2022-10-31T00:39:49;93086.91;;;10.04;84.08
52735;BME280;38631;47.572;10.704;2022-10-31T00:42:15;93092.72;;;10.06;84.83
52735;BME280;38631;47.572;10.704;2022-10-31T00:44:40;93087.47;;;9.82;85.33
52735;BME280;38631;47.572;10.704;2022-10-31T00:47:05;93089.84;;;10.02;84.48
52735;BME280;38631;47.572;10.704;2022-10-31T00:49:31;93096.56;;;9.94;85.76
52735;BME280;38631;47.572;10.704;2022-10-31T00:51:56;93096.38;;;9.91;86.08
52735;BME280;38631;47.572;10.704;2022-10-31T00:54:21;93094.28;;;9.88;85.18
52735;BME280;38631;47.572;10.704;2022-10-31T00:56:47;93093.56;;;10.01;84.20
52735;BME280;38631;47.572;10.704;2022-10-31T00:59:12;93097.00;;;10.02;83.88
52735;BME280;38631;47.572;10.704;2022-10-31T01:01:37;93097.19;;;9.67;85.02
52735;BME280;38631;47.572;10.704;2022-10-31T01:04:03;93097.38;;;9.52;85.67
52735;BME280;38631;47.572;10.704;2022-10-31T01:06:28;93095.84;;;9.70;85.67
52735;BME280;38631;47.572;10.704;2022-10-31T01:08:54;93090.59;;;9.65;86.10
52735;BME280;38631;47.572;10.704;2022-10-31T01:11:21;93095.75;;;9.56;86.28
52735;BME280;38631;47.572;10.704;2022-10-31T01:13:47;93087.47;;;9.82;85.89
52735;BME280;38631;47.572;10.704;2022-10-31T01:16:15;93090.75;;;9.92;84.80
52735;BME280;38631;47.572;10.704;2022-10-31T01:18:41;93091.06;;;9.48;85.79
52735;BME280;38631;47.572;10.704;2022-10-31T01:21:09;93090.81;;;9.25;87.18
52735;BME280;38631;47.572;10.704;2022-10-31T01:23:35;93085.78;;;9.24;87.20
52735;BME280;38631;47.572;10.704;2022-10-31T01:26:04;93086.06;;;9.46;86.42
52735;BME280;38631;47.572;10.704;2022-10-31T01:28:30;93082.13;;;9.63;85.89
52735;BME280;38631;47.572;10.704;2022-10-31T01:31:00;93082.00;;;9.54;86.22
52735;BME280;38631;47.572;10.704;2022-10-31T01:33:25;93075.06;;;9.58;86.13
52735;BME280;38631;47.572;10.704;2022-10-31T01:35:51;93081.16;;;9.59;85.05
52735;BME280;38631;47.572;10.704;2022-10-31T01:38:16;93077.44;;;9.79;84.29
52735;BME280;38631;47.572;10.704;2022-10-31T01:40:42;93070.84;;;9.76;83.66
52735;BME280;38631;47.572;10.704;2022-10-31T01:43:12;93082.28;;;9.90;83.58
52735;BME280;38631;47.572;10.704;2022-10-31T01:45:38;93075.66;;;9.50;84.87
52735;BME280;38631;47.572;10.704;2022-10-31T01:48:04;93076.19;;;9.52;85.78
52735;BME280;38631;47.572;10.704;2022-10-31T01:50:34;93065.44;;;9.62;85.89
52735;BME280;38631;47.572;10.704;2022-10-31T01:53:01;93058.78;;;9.65;84.31
52735;BME280;38631;47.572;10.704;2022-10-31T01:55:30;93069.25;;;9.75;85.05
52735;BME280;38631;47.572;10.704;2022-10-31T01:58:05;93059.78;;;9.69;84.94
52735;BME280;38631;47.572;10.704;2022-10-31T02:00:31;93069.31;;;9.70;84.90
52735;BME280;38631;47.572;10.704;2022-10-31T02:02:57;93061.56;;;9.55;84.67
52735;BME280;38631;47.572;10.704;2022-10-31T02:05:26;93065.22;;;9.59;84.59
52735;BME280;38631;47.572;10.704;2022-10-31T02:08:03;93065.38;;;9.24;85.81
52735;BME280;38631;47.572;10.704;2022-10-31T02:10:32;93057.34;;;9.54;84.38
52735;BME280;38631;47.572;10.704;2022-10-31T02:13:00;93060.84;;;9.68;84.07
52735;BME280;38631;47.572;10.704;2022-10-31T02:15:26;93059.56;;;9.65;84.37
52735;BME280;38631;47.572;10.704;2022-10-31T02:17:53;93058.28;;;9.63;83.35
52735;BME280;38631;47.572;10.704;2022-10-31T02:20:21;93062.94;;;9.52;83.69
52735;BME280;38631;47.572;10.704;2022-10-31T02:41:40;93052.66;;;8.78;86.91
52735;BME280;38631;47.572;10.704;2022-10-31T02:44:16;93050.22;;;9.06;86.08
52735;BME280;38631;47.572;10.704;2022-10-31T02:46:48;93056.19;;;8.93;86.17
52735;BME280;38631;47.572;10.704;2022-10-31T02:49:38;93057.34;;;9.11;85.26
52735;BME280;38631;47.572;10.704;2022-10-31T02:52:26;93051.28;;;9.29;85.30
52735;BME280;38631;47.572;10.704;2022-10-31T02:54:52;93048.53;;;9.15;85.56
52735;BME280;38631;47.572;10.704;2022-10-31T02:59:54;93044.31;;;9.14;84.49
52735;BME280;38631;47.572;10.704;2022-10-31T03:10:31;93055.53;;;8.53;87.22
52735;BME280;38631;47.572;10.704;2022-10-31T03:16:02;93051.59;;;8.50;87.17
52735;BME280;38631;47.572;10.704;2022-10-31T03:18:43;93040.19;;;8.79;86.88
52735;BME280;38631;47.572;10.704;2022-10-31T03:21:19;93045.00;;;9.01;85.46
52735;BME280;38631;47.572;10.704;2022-10-31T03:23:49;93049.41;;;9.11;84.68
52735;BME280;38631;47.572;10.704;2022-10-31T03:26:17;93048.25;;;9.17;83.95
52735;BME280;38631;47.572;10.704;2022-10-31T03:28:48;93035.00;;;9.17;84.37
52735;BME280;38631;47.572;10.704;2022-10-31T03:31:17;93048.28;;;8.63;86.73
52735;BME280;38631;47.572;10.704;2022-10-31T03:33:45;93055.88;;;8.46;86.54
52735;BME280;38631;47.572;10.704;2022-10-31T03:36:14;93045.69;;;8.58;87.62
52735;BME280;38631;47.572;10.704;2022-10-31T03:38:41;93043.38;;;8.52;85.94
52735;BME280;38631;47.572;10.704;2022-10-31T03:41:11;93045.50;;;8.50;86.89
52735;BME280;38631;47.572;10.704;2022-10-31T03:43:42;93042.41;;;8.37;87.05
52735;BME280;38631;47.572;10.704;2022-10-31T03:46:11;93052.31;;;8.21;88.23
52735;BME280;38631;47.572;10.704;2022-10-31T03:48:36;93047.69;;;8.37;87.27
52735;BME280;38631;47.572;10.704;2022-10-31T03:51:25;93045.66;;;8.63;87.13
52735;BME280;38631;47.572;10.704;2022-10-31T03:53:59;93044.56;;;8.64;86.85
52735;BME280;38631;47.572;10.704;2022-10-31T03:56:35;93038.53;;;8.59;86.66
52735;BME280;38631;47.572;10.704;2022-10-31T04:02:10;93052.13;;;8.47;86.37
52735;BME280;38631;47.572;10.704;2022-10-31T04:04:38;93046.25;;;8.21;86.71
52735;BME280;38631;47.572;10.704;2022-10-31T04:07:05;93049.78;;;8.46;86.83
52735;BME280;38631;47.572;10.704;2022-10-31T04:09:33;93043.53;;;8.31;87.43
52735;BME280;38631;47.572;10.704;2022-10-31T04:12:00;93040.47;;;8.14;87.34
52735;BME280;38631;47.572;10.704;2022-10-31T04:14:29;93039.53;;;7.99;89.34
52735;BME280;38631;47.572;10.704;2022-10-31T04:16:56;93043.78;;;8.00;89.46
52735;BME280;38631;47.572;10.704;2022-10-31T04:19:21;93040.81;;;8.36;87.57
52735;BME280;38631;47.572;10.704;2022-10-31T04:21:47;93049.72;;;8.16;87.98
52735;BME280;38631;47.572;10.704;2022-10-31T04:24:12;93041.53;;;8.18;88.47
52735;BME280;38631;47.572;10.704;2022-10-31T04:26:37;93048.53;;;8.33;87.52
52735;BME280;38631;47.572;10.704;2022-10-31T04:29:03;93040.91;;;8.26;87.77
52735;BME280;38631;47.572;10.704;2022-10-31T04:31:28;93034.19;;;8.05;89.01
52735;BME280;38631;47.572;10.704;2022-10-31T04:33:54;93041.97;;;7.91;88.11
52735;BME280;38631;47.572;10.704;2022-10-31T04:36:19;93040.56;;;8.04;88.28
52735;BME280;38631;47.572;10.704;2022-10-31T04:38:45;93037.84;;;8.14;87.85
52735;BME280;38631;47.572;10.704;2022-10-31T04:41:10;93031.59;;;8.34;86.94
52735;BME280;38631;47.572;10.704;2022-10-31T04:43:35;93028.78;;;8.25;86.62
52735;BME280;38631;47.572;10.704;2022-10-31T04:46:01;93028.31;;;7.78;87.64
52735;BME280;38631;47.572;10.704;2022-10-31T04:48:26;93028.22;;;7.49;89.39
52735;BME280;38631;47.572;10.704;2022-10-31T04:50:52;93024.97;;;8.02;88.72
52735;BME280;38631;47.572;10.704;2022-10-31T04:53:17;93026.06;;;8.30;87.29
52735;BME280;38631;47.572;10.704;2022-10-31T04:55:42;93023.31;;;8.11;86.79
52735;BME280;38631;47.572;10.704;2022-10-31T04:58:08;93018.25;;;7.81;88.89
52735;BME280;38631;47.572;10.704;2022-10-31T05:00:33;93013.84;;;8.05;87.47
52735;BME280;38631;47.572;10.704;2022-10-31T05:02:58;93004.88;;;8.35;86.85
52735;BME280;38631;47.572;10.704;2022-10-31T05:05:29;93006.47;;;8.31;85.43
52735;BME280;38631;47.572;10.704;2022-10-31T05:07:56;93006.50;;;7.97;86.99
52735;BME280;38631;47.572;10.704;2022-10-31T05:10:23;93016.38;;;7.86;86.73
52735;BME280;38631;47.572;10.704;2022-10-31T05:12:54;93008.53;;;7.71;87.26
52735;BME280;38631;47.572;10.704;2022-10-31T05:15:21;93009.78;;;7.84;87.24
52735;BME280;38631;47.572;10.704;2022-10-31T05:17:47;93010.94;;;7.67;88.72
52735;BME280;38631;47.572;10.704;2022-10-31T05:20:14;93012.38;;;7.89;87.97
52735;BME280;38631;47.572;10.704;2022-10-31T05:22:48;93008.22;;;8.12;86.99
52735;BME280;38631;47.572;10.704;2022-10-31T05:25:14;93010.69;;;7.64;87.66
52735;BME280;38631;47.572;10.704;2022-10-31T05:27:45;93007.66;;;7.86;88.01
52735;BME280;38631;47.572;10.704;2022-10-31T05:30:12;93003.59;;;7.98;86.93
52735;BME280;38631;47.572;10.704;2022-10-31T05:32:43;93009.56;;;8.09;87.26
52735;BME280;38631;47.572;10.704;2022-10-31T05:35:15;93002.16;;;8.11;86.61
52735;BME280;38631;47.572;10.704;2022-10-31T05:37:41;92995.44;;;7.55;89.55
52735;BME280;38631;47.572;10.704;2022-10-31T05:40:09;93000.44;;;7.57;87.52
52735;BME280;38631;47.572;10.704;2022-10-31T05:42:35;93001.63;;;7.80;88.58
52735;BME280;38631;47.572;10.704;2022-10-31T05:45:01;92992.28;;;7.53;88.76
52735;BME280;38631;47.572;10.704;2022-10-31T05:47:26;92995.91;;;7.63;88.09
52735;BME280;38631;47.572;10.704;2022-10-31T05:49:52;92986.47;;;7.91;88.42
52735;BME280;38631;47.572;10.704;2022-10-31T05:52:17;92989.06;;;7.96;86.90
52735;BME280;38631;47.572;10.704;2022-10-31T05:54:43;92988.81;;;7.92;86.62
52735;BME280;38631;47.572;10.704;2022-10-31T05:57:09;92988.34;;;7.85;87.33
52735;BME280;38631;47.572;10.704;2022-10-31T05:59:34;92987.97;;;7.97;87.37
52735;BME280;38631;47.572;10.704;2022-10-31T06:01:59;92994.66;;;7.89;87.31
52735;BME280;38631;47.572;10.704;2022-10-31T06:04:25;92991.09;;;8.04;86.47
52735;BME280;38631;47.572;10.704;2022-10-31T06:06:50;92989.19;;;8.10;87.33
52735;BME280;38631;47.572;10.704;2022-10-31T06:09:15;92988.31;;;8.19;86.25
52735;BME280;38631;47.572;10.704;2022-10-31T06:11:41;92987.91;;;8.07;86.66
52735;BME280;38631;47.572;10.704;2022-10-31T06:14:06;92992.53;;;7.91;87.83
52735;BME280;38631;47.572;10.704;2022-10-31T06:16:32;92989.94;;;7.86;87.88
52735;BME280;38631;47.572;10.704;2022-10-31T06:18:57;92991.53;;;7.82;86.70
52735;BME280;38631;47.572;10.704;2022-10-31T06:21:22;92985.63;;;7.95;86.96
52735;BME280;38631;47.572;10.704;2022-10-31T06:23:48;92989.00;;;8.01;86.09
52735;BME280;38631;47.572;10.704;2022-10-31T06:26:13;92980.31;;;8.00;86.68
52735;BME280;38631;47.572;10.704;2022-10-31T06:28:38;92985.03;;;7.69;87.77
52735;BME280;38631;47.572;10.704;2022-10-31T06:31:04;92980.69;;;7.84;87.76
52735;BME280;38631;47.572;10.704;2022-10-31T06:33:29;92979.44;;;7.76;88.70
52735;BME280;38631;47.572;10.704;2022-10-31T06:35:55;92973.66;;;8.03;87.37
52735;BME280;38631;47.572;10.704;2022-10-31T06:38:20;92977.75;;;7.90;86.71
52735;BME280;38631;47.572;10.704;2022-10-31T06:40:46;92975.06;;;7.95;88.11
52735;BME280;38631;47.572;10.704;2022-10-31T06:43:11;92982.16;;;8.00;86.80
52735;BME280;38631;47.572;10.704;2022-10-31T06:45:37;92984.38;;;7.88;86.91
52735;BME280;38631;47.572;10.704;2022-10-31T06:48:02;92985.38;;;7.92;88.70
52735;BME280;38631;47.572;10.704;2022-10-31T06:50:28;92988.34;;;7.85;88.37
52735;BME280;38631;47.572;10.704;2022-10-31T06:52:57;92987.00;;;7.88;88.93
52735;BME280;38631;47.572;10.704;2022-10-31T06:55:24;92984.00;;;7.99;88.19
52735;BME280;38631;47.572;10.704;2022-10-31T06:57:53;92982.34;;;8.09;88.59
52735;BME280;38631;47.572;10.704;2022-10-31T07:00:20;92989.81;;;8.31;86.86
52735;BME280;38631;47.572;10.704;2022-10-31T07:03:01;92985.50;;;8.40;86.61
52735;BME280;38631;47.572;10.704;2022-10-31T07:05:28;92990.63;;;8.60;87.95
52735;BME280;38631;47.572;10.704;2022-10-31T07:07:55;92989.81;;;8.84;86.52
52735;BME280;38631;47.572;10.704;2022-10-31T07:10:21;92991.69;;;8.83;86.81
52735;BME280;38631;47.572;10.704;2022-10-31T07:12:47;92988.22;;;9.07;85.97
52735;BME280;38631;47.572;10.704;2022-10-31T07:15:12;92993.41;;;9.17;85.62
52735;BME280;38631;47.572;10.704;2022-10-31T07:17:38;92990.63;;;9.46;84.44
52735;BME280;38631;47.572;10.704;2022-10-31T07:20:04;92986.41;;;9.26;83.21
52735;BME280;38631;47.572;10.704;2022-10-31T07:22:34;92984.97;;;9.34;84.17
52735;BME280;38631;47.572;10.704;2022-10-31T07:25:00;92981.22;;;9.35;83.53
52735;BME280;38631;47.572;10.704;2022-10-31T07:27:26;92984.47;;;9.32;83.93
52735;BME280;38631;47.572;10.704;2022-10-31T07:29:51;92991.00;;;9.59;82.75
52735;BME280;38631;47.572;10.704;2022-10-31T07:32:16;92982.59;;;9.70;82.58
52735;BME280;38631;47.572;10.704;2022-10-31T07:34:41;92980.34;;;9.97;80.87
52735;BME280;38631;47.572;10.704;2022-10-31T07:37:07;92983.72;;;10.02;80.20
52735;BME280;38631;47.572;10.704;2022-10-31T07:39:32;92976.44;;;10.08;80.32
52735;BME280;38631;47.572;10.704;2022-10-31T07:41:58;92984.03;;;10.14;78.28
52735;BME280;38631;47.572;10.704;2022-10-31T07:44:23;92986.78;;;10.28;76.71
52735;BME280;38631;47.572;10.704;2022-10-31T07:46:49;92972.59;;;10.33;77.29
52735;BME280;38631;47.572;10.704;2022-10-31T07:49:14;92977.75;;;10.43;77.24
52735;BME280;38631;47.572;10.704;2022-10-31T07:51:39;92964.19;;;10.45;77.90
52735;BME280;38631;47.572;10.704;2022-10-31T07:54:05;92965.47;;;10.47;78.89
52735;BME280;38631;47.572;10.704;2022-10-31T07:56:30;92970.50;;;10.49;78.34
52735;BME280;38631;47.572;10.704;2022-10-31T07:58:55;92965.94;;;10.35;81.43
52735;BME280;38631;47.572;10.704;2022-10-31T08:01:21;92969.31;;;10.41;80.57
52735;BME280;38631;47.572;10.704;2022-10-31T08:03:46;92960.75;;;10.58;79.53
52735;BME280;38631;47.572;10.704;2022-10-31T08:06:11;92965.50;;;10.61;79.65
52735;BME280;38631;47.572;10.704;2022-10-31T08:08:37;92958.00;;;10.63;78.86
52735;BME280;38631;47.572;10.704;2022-10-31T08:11:02;92956.63;;;10.79;79.73
52735;BME280;38631;47.572;10.704;2022-10-31T08:13:28;92962.56;;;10.76;79.26
52735;BME280;38631;47.572;10.704;2022-10-31T08:15:53;92952.78;;;10.86;79.92
52735;BME280;38631;47.572;10.704;2022-10-31T08:18:19;92954.56;;;11.04;80.76
52735;BME280;38631;47.572;10.704;2022-10-31T08:20:46;92956.63;;;11.07;79.87
52735;BME280;38631;47.572;10.704;2022-10-31T08:23:12;92951.69;;;11.14;78.67
52735;BME280;38631;47.572;10.704;2022-10-31T08:25:38;92948.06;;;11.10;77.74
52735;BME280;38631;47.572;10.704;2022-10-31T08:28:04;92952.66;;;11.18;77.84
52735;BME280;38631;47.572;10.704;2022-10-31T08:30:31;92942.50;;;11.34;76.87
52735;BME280;38631;47.572;10.704;2022-10-31T08:33:17;92949.34;;;12.08;73.86
52735;BME280;38631;47.572;10.704;2022-10-31T08:35:43;92945.69;;;11.95;75.33
52735;BME280;38631;47.572;10.704;2022-10-31T08:38:10;92947.53;;;12.17;74.57
52735;BME280;38631;47.572;10.704;2022-10-31T08:40:36;92944.22;;;12.12;75.69
52735;BME280;38631;47.572;10.704;2022-10-31T08:43:13;92938.53;;;12.04;74.46
52735;BME280;38631;47.572;10.704;2022-10-31T08:45:38;92939.31;;;12.05;76.10
52735;BME280;38631;47.572;10.704;2022-10-31T08:48:06;92935.81;;;11.96;75.40
52735;BME280;38631;47.572;10.704;2022-10-31T08:50:34;92932.72;;;12.25;75.10
52735;BME280;38631;47.572;10.704;2022-10-31T08:53:01;92926.84;;;12.45;74.49
52735;BME280;38631;47.572;10.704;2022-10-31T08:55:27;92930.09;;;12.73;73.10
52735;BME280;38631;47.572;10.704;2022-10-31T08:57:56;92921.81;;;12.84;71.83
52735;BME280;38631;47.572;10.704;2022-10-31T09:00:22;92922.59;;;12.75;71.26
52735;BME280;38631;47.572;10.704;2022-10-31T09:02:54;92923.78;;;12.61;71.54
52735;BME280;38631;47.572;10.704;2022-10-31T09:05:20;92917.25;;;12.67;72.58
52735;BME280;38631;47.572;10.704;2022-10-31T09:07:45;92920.91;;;12.88;73.45
52735;BME280;38631;47.572;10.704;2022-10-31T09:10:10;92913.38;;;12.82;72.47
52735;BME280;38631;47.572;10.704;2022-10-31T09:12:36;92918.88;;;12.85;73.15
52735;BME280;38631;47.572;10.704;2022-10-31T09:15:01;92909.81;;;12.95;70.84
52735;BME280;38631;47.572;10.704;2022-10-31T09:17:27;92913.09;;;13.01;71.19
52735;BME280;38631;47.572;10.704;2022-10-31T09:19:52;92902.63;;;13.13;73.24
52735;BME280;38631;47.572;10.704;2022-10-31T09:22:17;92907.34;;;13.25;72.34
52735;BME280;38631;47.572;10.704;2022-10-31T09:24:43;92902.38;;;13.32;74.47
52735;BME280;38631;47.572;10.704;2022-10-31T09:27:08;92908.03;;;13.56;73.75
52735;BME280;38631;47.572;10.704;2022-10-31T09:29:34;92897.47;;;13.25;71.17
52735;BME280;38631;47.572;10.704;2022-10-31T09:31:59;92895.16;;;13.41;72.34
52735;BME280;38631;47.572;10.704;2022-10-31T09:34:24;92896.88;;;13.28;72.66
52735;BME280;38631;47.572;10.704;2022-10-31T09:36:50;92896.41;;;13.61;73.00
52735;BME280;38631;47.572;10.704;2022-10-31T09:39:15;92892.19;;;13.60;73.38
52735;BME280;38631;47.572;10.704;2022-10-31T09:42:14;92895.00;;;13.72;70.37
52735;BME280;38631;47.572;10.704;2022-10-31T09:52:24;92881.47;;;13.86;65.32
52735;BME280;38631;47.572;10.704;2022-10-31T09:54:59;92888.25;;;13.92;67.52
52735;BME280;38631;47.572;10.704;2022-10-31T09:57:31;92890.56;;;13.94;66.19
52735;BME280;38631;47.572;10.704;2022-10-31T09:59:57;92885.56;;;13.92;66.70
52735;BME280;38631;47.572;10.704;2022-10-31T10:02:29;92888.56;;;13.82;66.49
52735;BME280;38631;47.572;10.704;2022-10-31T10:05:00;92893.28;;;13.85;66.21
52735;BME280;38631;47.572;10.704;2022-10-31T10:10:18;92885.59;;;13.75;63.73
52735;BME280;38631;47.572;10.704;2022-10-31T10:15:47;92884.63;;;13.88;62.98
52735;BME280;38631;47.572;10.704;2022-10-31T10:18:35;92893.75;;;13.87;62.28
52735;BME280;38631;47.572;10.704;2022-10-31T10:21:22;92877.69;;;14.04;65.01
52735;BME280;38631;47.572;10.704;2022-10-31T10:26:34;92875.16;;;14.08;62.70
52735;BME280;38631;47.572;10.704;2022-10-31T10:29:08;92873.75;;;14.11;63.22
52735;BME280;38631;47.572;10.704;2022-10-31T10:31:41;92881.59;;;14.16;61.24
52735;BME280;38631;47.572;10.704;2022-10-31T10:34:18;92875.28;;;14.20;66.58
52735;BME280;38631;47.572;10.704;2022-10-31T10:36:53;92872.75;;;14.33;62.95
52735;BME280;38631;47.572;10.704;2022-10-31T10:39:25;92876.84;;;14.30;65.11
52735;BME280;38631;47.572;10.704;2022-10-31T10:41:52;92875.91;;;14.26;64.54
52735;BME280;38631;47.572;10.704;2022-10-31T10:44:38;92880.25;;;14.39;63.58
52735;BME280;38631;47.572;10.704;2022-10-31T10:47:26;92875.25;;;14.38;60.83
52735;BME280;38631;47.572;10.704;2022-10-31T10:50:19;92873.59;;;14.63;60.77
52735;BME280;38631;47.572;10.704;2022-10-31T10:53:06;92862.94;;;14.54;63.46
52735;BME280;38631;47.572;10.704;2022-10-31T10:56:16;92865.31;;;14.56;62.33
52735;BME280;38631;47.572;10.704;2022-10-31T10:58:43;92867.50;;;14.54;63.77
52735;BME280;38631;47.572;10.704;2022-10-31T11:01:12;92856.63;;;14.59;62.88
52735;BME280;38631;47.572;10.704;2022-10-31T11:03:37;92864.34;;;14.90;58.55
52735;BME280;38631;47.572;10.704;2022-10-31T11:06:04;92855.09;;;14.87;58.87
52735;BME280;38631;47.572;10.704;2022-10-31T11:08:34;92857.44;;;14.89;59.49
52735;BME280;38631;47.572;10.704;2022-10-31T11:11:03;92851.84;;;15.03;60.93
52735;BME280;38631;47.572;10.704;2022-10-31T11:13:30;92850.66;;;14.91;61.49
52735;BME280;38631;47.572;10.704;2022-10-31T11:16:07;92845.75;;;14.94;62.13
52735;BME280;38631;47.572;10.704;2022-10-31T11:18:39;92850.47;;;14.97;64.10
52735;BME280;38631;47.572;10.704;2022-10-31T11:21:24;92847.00;;;14.96;64.94
52735;BME280;38631;47.572;10.704;2022-10-31T11:24:23;92843.88;;;14.94;65.61
52735;BME280;38631;47.572;10.704;2022-10-31T11:26:48;92837.69;;;15.02;63.71
52735;BME280;38631;47.572;10.704;2022-10-31T11:29:24;92838.94;;;15.05;64.01
52735;BME280;38631;47.572;10.704;2022-10-31T11:31:52;92828.59;;;14.95;64.73
52735;BME280;38631;47.572;10.704;2022-10-31T11:37:20;92834.88;;;14.99;65.54
52735;BME280;38631;47.572;10.704;2022-10-31T11:39:50;92833.72;;;15.08;65.90
52735;BME280;38631;47.572;10.704;2022-10-31T11:42:23;92826.53;;;15.21;64.03
52735;BME280;38631;47.572;10.704;2022-10-31T11:44:51;92821.47;;;15.28;62.28
52735;BME280;38631;47.572;10.704;2022-10-31T11:47:18;92824.84;;;15.38;62.72
52735;BME280;38631;47.572;10.704;2022-10-31T11:49:48;92817.97;;;15.49;63.08
52735;BME280;38631;47.572;10.704;2022-10-31T11:52:23;92813.81;;;15.39;61.28
52735;BME280;38631;47.572;10.704;2022-10-31T11:55:02;92811.25;;;15.64;60.00
52735;BME280;38631;47.572;10.704;2022-10-31T11:57:47;92806.34;;;15.66;58.20
52735;BME280;38631;47.572;10.704;2022-10-31T12:00:24;92803.53;;;15.62;58.48
52735;BME280;38631;47.572;10.704;2022-10-31T12:02:50;92800.50;;;15.72;58.27
52735;BME280;38631;47.572;10.704;2022-10-31T12:05:26;92794.72;;;15.95;59.62
52735;BME280;38631;47.572;10.704;2022-10-31T12:07:57;92791.16;;;15.91;59.25
52735;BME280;38631;47.572;10.704;2022-10-31T12:10:30;92786.50;;;16.12;57.29
52735;BME280;38631;47.572;10.704;2022-10-31T12:15:52;92782.97;;;16.33;57.54
52735;BME280;38631;47.572;10.704;2022-10-31T12:18:36;92778.47;;;16.25;54.18
52735;BME280;38631;47.572;10.704;2022-10-31T12:23:58;92772.69;;;16.23;54.53
52735;BME280;38631;47.572;10.704;2022-10-31T12:26:37;92765.06;;;16.12;53.62
52735;BME280;38631;47.572;10.704;2022-10-31T12:45:41;92753.56;;;16.73;55.49
52735;BME280;38631;47.572;10.704;2022-10-31T12:51:09;92748.31;;;16.77;54.26
52735;BME280;38631;47.572;10.704;2022-10-31T12:53:46;92743.94;;;16.97;53.33
52735;BME280;38631;47.572;10.704;2022-10-31T12:58:56;92734.63;;;17.06;52.67
52735;BME280;38631;47.572;10.704;2022-10-31T13:01:38;92733.72;;;17.15;52.61
52735;BME280;38631;47.572;10.704;2022-10-31T13:04:14;92739.97;;;17.19;50.70
52735;BME280;38631;47.572;10.704;2022-10-31T13:06:49;92738.34;;;17.30;53.56
52735;BME280;38631;47.572;10.704;2022-10-31T13:09:33;92740.22;;;17.14;53.59
52735;BME280;38631;47.572;10.704;2022-10-31T13:12:14;92742.75;;;17.22;52.84
52735;BME280;38631;47.572;10.704;2022-10-31T13:14:47;92739.44;;;17.13;52.58
52735;BME280;38631;47.572;10.704;2022-10-31T13:17:30;92737.56;;;17.01;52.40
52735;BME280;38631;47.572;10.704;2022-10-31T13:20:49;92735.31;;;17.03;53.15
52735;BME280;38631;47.572;10.704;2022-10-31T13:22:53;92733.78;;;16.90;52.59
52735;BME280;38631;47.572;10.704;2022-10-31T13:25:30;92731.44;;;17.01;51.74
52735;BME280;38631;47.572;10.704;2022-10-31T13:28:02;92738.91;;;16.95;52.69
52735;BME280;38631;47.572;10.704;2022-10-31T13:30:32;92739.63;;;17.20;51.55
52735;BME280;38631;47.572;10.704;2022-10-31T13:35:48;92732.84;;;17.11;53.85
52735;BME280;38631;47.572;10.704;2022-10-31T13:38:27;92731.44;;;16.76;55.62
52735;BME280;38631;47.572;10.704;2022-10-31T13:41:20;92727.63;;;16.77;56.07
52735;BME280;38631;47.572;10.704;2022-10-31T13:46:39;92726.00;;;16.60;57.74
52735;BME280;38631;47.572;10.704;2022-10-31T13:52:05;92712.03;;;16.42;59.65
52735;BME280;38631;47.572;10.704;2022-10-31T13:54:33;92715.75;;;16.38;60.35
52735;BME280;38631;47.572;10.704;2022-10-31T13:56:59;92724.00;;;16.08;64.11
52735;BME280;38631;47.572;10.704;2022-10-31T13:59:29;92725.91;;;15.95;63.72
52735;BME280;38631;47.572;10.704;2022-10-31T14:01:59;92721.53;;;15.91;64.31
52735;BME280;38631;47.572;10.704;2022-10-31T14:04:30;92721.06;;;15.76;64.52
52735;BME280;38631;47.572;10.704;2022-10-31T14:07:10;92713.38;;;15.75;64.07
52735;BME280;38631;47.572;10.704;2022-10-31T14:09:40;92711.97;;;15.69;64.08
52735;BME280;38631;47.572;10.704;2022-10-31T14:14:53;92712.59;;;15.87;63.23
52735;BME280;38631;47.572;10.704;2022-10-31T14:17:23;92706.34;;;15.70;65.72
52735;BME280;38631;47.572;10.704;2022-10-31T14:20:02;92705.56;;;15.49;66.17
52735;BME280;38631;47.572;10.704;2022-10-31T14:22:30;92699.97;;;15.42;66.80
52735;BME280;38631;47.572;10.704;2022-10-31T14:24:56;92700.31;;;15.40;67.11
52735;BME280;38631;47.572;10.704;2022-10-31T14:29:49;92703.88;;;15.44;68.42
52735;BME280;38631;47.572;10.704;2022-10-31T14:32:22;92702.34;;;15.43;69.13
52735;BME280;38631;47.572;10.704;2022-10-31T14:37:47;92693.22;;;15.69;66.22
52735;BME280;38631;47.572;10.704;2022-10-31T14:50:57;92683.38;;;15.94;64.77
52735;BME280;38631;47.572;10.704;2022-10-31T14:55:53;92670.44;;;16.08;64.19
52735;BME280;38631;47.572;10.704;2022-10-31T14:58:57;92667.97;;;16.28;62.27